createdAt,value
2022-08-17T00:01:31.471Z,59.44
2022-08-17T00:04:19.416Z,60.81
2022-08-17T00:06:48.777Z,60.97
2022-08-17T00:09:18.836Z,60.65
2022-08-17T00:12:35.042Z,59.77
2022-08-17T00:14:36.091Z,60.81
2022-08-17T00:17:04.649Z,60.46
2022-08-17T00:19:32.711Z,59.43
2022-08-17T00:22:34.522Z,59.01
2022-08-17T00:24:49.743Z,60.95
2022-08-17T00:27:16.259Z,60.75
2022-08-17T00:29:42.762Z,60.88
2022-08-17T00:33:11.855Z,61.79
2022-08-17T00:34:55.692Z,60.25
2022-08-17T00:37:22.145Z,60.85
2022-08-17T00:39:48.695Z,62.28
2022-08-17T00:42:17.976Z,62.04
2022-08-17T00:44:45.363Z,60.79
2022-08-17T00:47:11.895Z,61.33
2022-08-17T00:49:38.391Z,61.96
2022-08-17T00:52:15.438Z,62.32
2022-08-17T00:54:44.890Z,63.12
2022-08-17T00:57:17.636Z,61.99
2022-08-17T01:00:01.527Z,61.50
2022-08-17T01:02:42.724Z,70.93
2022-08-17T01:05:16.472Z,71.46
2022-08-17T01:07:47.692Z,72.03
2022-08-17T01:10:59.042Z,72.96
2022-08-17T01:13:03.163Z,70.27
2022-08-17T01:15:32.761Z,72.09
2022-08-17T01:18:00.023Z,73.73
2022-08-17T01:20:26.932Z,73.40
2022-08-17T01:22:53.961Z,74.39
2022-08-17T01:25:21.582Z,67.43
2022-08-17T01:27:49.211Z,64.24
2022-08-17T01:30:57.047Z,64.88
2022-08-17T01:33:04.318Z,65.17
2022-08-17T01:35:31.713Z,65.07
2022-08-17T01:37:58.239Z,63.31
2022-08-17T01:40:35.255Z,65.29
2022-08-17T01:43:10.542Z,64.10
2022-08-17T01:45:44.240Z,65.06
2022-08-17T01:48:12.151Z,63.34
2022-08-17T01:50:42.634Z,64.12
2022-08-17T01:53:34.498Z,64.16
2022-08-17T01:56:10.627Z,64.10
2022-08-17T01:58:38.540Z,64.63
2022-08-17T02:01:06.025Z,65.32
2022-08-17T02:03:34.561Z,64.08
2022-08-17T02:06:02.008Z,63.90
2022-08-17T02:08:38.739Z,64.92
2022-08-17T02:11:11.533Z,65.34
2022-08-17T02:13:38.556Z,64.35
2022-08-17T02:16:05.496Z,66.26
2022-08-17T02:18:32.098Z,65.63
2022-08-17T02:20:58.553Z,65.68
2022-08-17T02:23:28.664Z,66.39
2022-08-17T02:25:57.640Z,65.85
2022-08-17T02:28:24.141Z,65.81
2022-08-17T02:31:00.886Z,65.56
2022-08-17T02:33:43.089Z,67.23
2022-08-17T02:36:12.109Z,67.41
2022-08-17T02:38:39.838Z,67.16
2022-08-17T02:41:06.622Z,66.40
2022-08-17T02:43:33.131Z,66.46
2022-08-17T02:45:59.594Z,66.59
2022-08-17T02:48:31.304Z,65.20
2022-08-17T02:50:59.900Z,66.67
2022-08-17T02:53:27.211Z,67.60
2022-08-17T02:55:53.860Z,67.15
2022-08-17T02:58:34.418Z,66.96
2022-08-17T03:01:04.560Z,67.24
2022-08-17T03:03:31.124Z,66.63
2022-08-17T03:05:57.909Z,67.49
2022-08-17T03:08:25.566Z,67.68
2022-08-17T03:10:52.664Z,67.33
2022-08-17T03:13:20.124Z,68.02
2022-08-17T03:15:47.612Z,66.86
2022-08-17T03:18:25.417Z,68.42
2022-08-17T03:20:58.288Z,67.35
2022-08-17T03:23:25.777Z,66.75
2022-08-17T03:25:54.074Z,66.64
2022-08-17T03:28:22.276Z,67.78
2022-08-17T03:30:51.075Z,66.37
2022-08-17T03:33:18.163Z,67.27
2022-08-17T03:35:45.086Z,66.65
2022-08-17T03:38:15.820Z,66.72
2022-08-17T03:40:58.156Z,67.16
2022-08-17T03:43:27.501Z,67.67
2022-08-17T03:46:27.775Z,68.93
2022-08-17T03:49:14.015Z,66.36
2022-08-17T03:51:58.725Z,66.81
2022-08-17T03:54:44.221Z,66.75
2022-08-17T03:57:11.941Z,67.92
2022-08-17T03:59:39.486Z,67.74
2022-08-17T04:02:34.512Z,67.32
2022-08-17T04:05:01.390Z,67.84
2022-08-17T04:07:30.450Z,68.13
2022-08-17T04:09:58.077Z,67.91
2022-08-17T04:12:25.547Z,68.65
2022-08-17T04:14:54.695Z,67.49
2022-08-17T04:17:29.268Z,66.82
2022-08-17T04:19:56.880Z,67.48
2022-08-17T04:22:30.712Z,67.20
2022-08-17T04:25:01.190Z,66.98
2022-08-17T04:27:27.684Z,66.97
2022-08-17T04:29:55.610Z,67.97
2022-08-17T04:32:58.627Z,67.77
2022-08-17T04:35:09.890Z,66.98
2022-08-17T04:37:36.398Z,68.11
2022-08-17T04:40:22.169Z,66.78
2022-08-17T04:43:05.142Z,67.63
2022-08-17T04:45:32.431Z,66.91
2022-08-17T04:48:01.182Z,68.20
2022-08-17T04:50:27.971Z,67.40
2022-08-17T04:52:55.767Z,67.73
2022-08-17T04:55:22.458Z,67.81
2022-08-17T04:57:48.982Z,66.98
2022-08-17T05:00:15.956Z,67.05
2022-08-17T05:02:50.668Z,67.22
2022-08-17T05:05:32.025Z,67.31
2022-08-17T05:08:01.140Z,68.64
2022-08-17T05:10:30.672Z,67.14
2022-08-17T05:13:02.051Z,67.73
2022-08-17T05:15:33.098Z,66.44
2022-08-17T05:18:04.038Z,66.07
2022-08-17T05:20:31.727Z,67.24
2022-08-17T05:23:01.978Z,66.02
2022-08-17T05:25:34.420Z,66.14
2022-08-17T05:28:02.850Z,62.86
2022-08-17T05:30:29.422Z,64.24
2022-08-17T05:33:08.655Z,64.69
2022-08-17T05:35:37.945Z,63.50
2022-08-17T05:38:05.199Z,62.41
2022-08-17T05:40:32.777Z,64.68
2022-08-17T05:43:12.079Z,60.28
2022-08-17T05:45:55.279Z,62.54
2022-08-17T05:48:35.464Z,61.81
2022-08-17T05:51:28.574Z,61.12
2022-08-17T05:54:21.303Z,57.96
2022-08-17T05:57:05.469Z,57.65
2022-08-17T05:59:50.177Z,57.99
2022-08-17T06:02:45.584Z,58.66
2022-08-17T06:05:51.591Z,58.91
2022-08-17T06:08:23.803Z,57.21
2022-08-17T06:11:20.053Z,59.00
2022-08-17T06:14:18.829Z,57.18
2022-08-17T06:16:55.042Z,56.40
2022-08-17T06:19:40.799Z,57.04
2022-08-17T06:22:11.974Z,56.76
2022-08-17T06:24:51.414Z,57.05
2022-08-17T06:27:41.067Z,53.70
2022-08-17T06:30:12.589Z,54.03
2022-08-17T06:32:43.607Z,55.98
2022-08-17T06:35:18.463Z,51.90
2022-08-17T06:38:04.162Z,52.65
2022-08-17T06:40:50.353Z,51.67
2022-08-17T06:43:48.167Z,54.34
2022-08-17T06:46:35.094Z,51.97
2022-08-17T06:49:26.265Z,52.57
2022-08-17T06:52:00.663Z,51.77
2022-08-17T06:54:39.651Z,49.28
2022-08-17T06:57:29.043Z,49.02
2022-08-17T07:00:04.735Z,49.98
2022-08-17T07:02:58.234Z,49.91
2022-08-17T07:05:32.134Z,48.56
2022-08-17T07:08:07.183Z,51.33
2022-08-17T07:10:44.044Z,47.68
2022-08-17T07:13:30.806Z,48.70
2022-08-17T07:16:15.563Z,48.17
2022-08-17T07:18:43.819Z,48.62
2022-08-17T07:21:26.815Z,46.09
2022-08-17T07:24:29.805Z,46.30
2022-08-17T07:27:04.924Z,45.69
2022-08-17T07:29:35.123Z,44.52
2022-08-17T07:32:01.575Z,46.53
2022-08-17T07:34:29.160Z,48.78
2022-08-17T07:37:05.466Z,43.32
2022-08-17T07:39:31.975Z,42.91
2022-08-17T07:42:03.977Z,43.49
2022-08-17T07:44:30.523Z,43.62
2022-08-17T07:47:23.439Z,41.39
2022-08-17T07:49:49.959Z,41.05
2022-08-17T07:52:50.965Z,42.14
2022-08-17T07:55:35.401Z,42.65
2022-08-17T07:58:03.369Z,42.14
2022-08-17T08:00:32.090Z,43.85
2022-08-17T08:03:31.880Z,40.15
2022-08-17T08:06:03.054Z,41.29
2022-08-17T08:08:43.298Z,41.84
2022-08-17T08:11:27.897Z,40.85
2022-08-17T08:13:54.423Z,42.03
2022-08-17T08:16:29.217Z,41.04
2022-08-17T08:18:59.098Z,43.03
2022-08-17T08:21:31.406Z,41.97
2022-08-17T08:24:30.092Z,38.22
2022-08-17T08:27:37.604Z,40.23
2022-08-17T08:30:18.487Z,41.96
2022-08-17T08:33:23.582Z,41.40
2022-08-17T08:35:58.956Z,37.50
2022-08-17T08:38:32.839Z,40.80
2022-08-17T08:41:21.275Z,37.07
2022-08-17T08:44:06.801Z,40.46
2022-08-17T08:47:29.644Z,39.71
2022-08-17T08:50:37.086Z,36.44
2022-08-17T08:53:32.085Z,37.44
2022-08-17T08:56:53.751Z,35.69
2022-08-17T08:59:45.196Z,35.64
2022-08-17T09:02:46.975Z,37.09
2022-08-17T09:05:29.238Z,35.94
2022-08-17T09:08:07.793Z,39.51
2022-08-17T09:10:52.221Z,37.00
2022-08-17T09:13:46.175Z,37.32
2022-08-17T09:16:33.276Z,38.56
2022-08-17T09:19:11.757Z,36.61
2022-08-17T09:21:52.663Z,34.22
2022-08-17T09:24:40.080Z,37.23
2022-08-17T09:27:13.442Z,35.62
2022-08-17T09:29:47.800Z,36.42
2022-08-17T09:32:20.203Z,34.97
2022-08-17T09:35:00.004Z,34.19
2022-08-17T09:38:17.099Z,34.25
2022-08-17T09:41:01.645Z,35.53
2022-08-17T09:43:56.687Z,34.07
2022-08-17T09:46:43.544Z,33.26
2022-08-17T09:49:15.001Z,33.96
2022-08-17T09:51:48.706Z,34.07
2022-08-17T09:54:41.764Z,34.53
2022-08-17T09:57:31.067Z,32.20
2022-08-17T10:00:16.747Z,32.60
2022-08-17T10:03:02.613Z,32.30
2022-08-17T10:05:39.374Z,34.95
2022-08-17T10:08:27.700Z,33.80
2022-08-17T10:11:18.996Z,33.61
2022-08-17T10:13:54.668Z,31.29
2022-08-17T10:16:41.121Z,30.82
2022-08-17T10:19:16.874Z,30.93
2022-08-17T10:22:32.559Z,29.96
2022-08-17T10:25:22.115Z,28.51
2022-08-17T10:28:05.803Z,28.10
2022-08-17T10:30:43.744Z,28.65
2022-08-17T10:33:20.483Z,27.25
2022-08-17T10:36:18.968Z,26.46
2022-08-17T10:39:05.151Z,28.74
2022-08-17T10:41:40.479Z,25.77
2022-08-17T10:44:38.694Z,24.09
2022-08-17T10:47:11.675Z,23.71
2022-08-17T10:49:48.035Z,24.46
2022-08-17T10:52:20.793Z,24.88
2022-08-17T10:55:06.367Z,25.16
2022-08-17T10:57:34.694Z,25.02
2022-08-17T11:00:10.267Z,25.34
2022-08-17T11:02:45.764Z,25.23
2022-08-17T11:05:12.259Z,26.43
2022-08-17T11:07:43.869Z,26.34
2022-08-17T11:10:52.277Z,26.21
2022-08-17T11:13:30.827Z,25.27
2022-08-17T11:16:39.067Z,24.46
2022-08-17T11:19:17.715Z,23.96
2022-08-17T11:22:03.932Z,23.83
2022-08-17T11:24:43.490Z,23.43
2022-08-17T11:27:35.378Z,23.55
2022-08-17T11:30:10.914Z,22.19
2022-08-17T11:32:48.097Z,23.68
2022-08-17T11:35:21.527Z,22.46
2022-08-17T11:38:14.069Z,23.87
2022-08-17T11:41:08.387Z,23.01
2022-08-17T11:43:59.080Z,21.41
2022-08-17T11:47:28.614Z,21.54
2022-08-17T11:50:28.385Z,23.49
2022-08-17T11:52:55.084Z,26.20
2022-08-17T11:55:38.479Z,22.96
2022-08-17T11:58:30.078Z,20.56
2022-08-17T12:01:02.010Z,23.54
2022-08-17T12:03:34.565Z,23.36
2022-08-17T12:06:19.511Z,23.11
2022-08-17T12:08:55.345Z,21.45
2022-08-17T12:11:55.542Z,20.95
2022-08-17T12:15:08.418Z,23.44
2022-08-17T12:17:41.070Z,19.93
2022-08-17T12:20:22.221Z,22.38
2022-08-17T12:23:14.758Z,22.22
2022-08-17T12:25:45.310Z,20.92
2022-08-17T12:28:32.428Z,20.75
2022-08-17T12:31:11.736Z,22.28
2022-08-17T12:33:43.701Z,23.13
2022-08-17T12:36:15.177Z,22.58
2022-08-17T12:38:50.950Z,21.58
2022-08-17T12:41:30.457Z,21.32
2022-08-17T12:44:23.300Z,21.30
2022-08-17T12:46:55.843Z,21.08
2022-08-17T12:49:28.914Z,21.61
2022-08-17T12:52:17.151Z,21.70
2022-08-17T12:54:59.530Z,23.12
2022-08-17T12:57:39.866Z,21.48
2022-08-17T13:00:17.457Z,21.37
2022-08-17T13:03:07.861Z,22.96
2022-08-17T13:05:40.975Z,23.29
2022-08-17T13:08:18.679Z,22.62
2022-08-17T13:10:55.693Z,22.81
2022-08-17T13:13:31.638Z,23.83
2022-08-17T13:16:20.563Z,22.74
2022-08-17T13:18:54.831Z,22.13
2022-08-17T13:21:26.988Z,23.32
2022-08-17T13:24:08.282Z,23.76
2022-08-17T13:26:40.237Z,23.00
2022-08-17T13:29:19.402Z,24.29
2022-08-17T13:31:52.682Z,24.20
2022-08-17T13:34:26.950Z,24.14
2022-08-17T13:37:32.804Z,24.27
2022-08-17T13:40:11.456Z,24.59
2022-08-17T13:42:52.940Z,23.95
2022-08-17T13:45:38.868Z,25.36
2022-08-17T13:48:11.957Z,23.93
2022-08-17T13:50:45.183Z,24.32
2022-08-17T13:53:26.476Z,27.36
2022-08-17T13:56:01.562Z,24.54
2022-08-17T13:58:35.204Z,23.86
2022-08-17T14:01:35.583Z,24.90
2022-08-17T14:04:05.872Z,24.47
2022-08-17T14:06:52.929Z,23.43
2022-08-17T14:09:24.071Z,23.10
2022-08-17T14:11:51.497Z,24.29
2022-08-17T14:14:18.726Z,23.98
2022-08-17T14:16:45.266Z,23.98
2022-08-17T14:19:14.449Z,24.02
2022-08-17T14:21:43.755Z,25.49
2022-08-17T14:24:19.807Z,24.17
2022-08-17T14:26:46.672Z,24.11
2022-08-17T14:29:15.362Z,23.21
2022-08-17T14:31:42.274Z,24.05
2022-08-17T14:34:15.313Z,23.88
2022-08-17T14:36:48.451Z,23.12
2022-08-17T14:39:16.687Z,23.15
2022-08-17T14:41:43.723Z,22.97
2022-08-17T14:44:13.593Z,22.82
2022-08-17T14:46:41.564Z,23.37
2022-08-17T14:49:10.913Z,23.82
2022-08-17T14:51:43.487Z,23.82
2022-08-17T14:54:11.068Z,23.21
2022-08-17T14:56:38.676Z,23.91
2022-08-17T14:59:05.489Z,23.43
2022-08-17T15:01:33.024Z,23.74
2022-08-17T15:04:00.979Z,24.21
2022-08-17T15:06:27.516Z,25.13
2022-08-17T15:08:54.491Z,23.51
2022-08-17T15:11:21.026Z,24.63
2022-08-17T15:13:52.692Z,24.01
2022-08-17T15:16:20.522Z,24.41
2022-08-17T15:18:47.159Z,23.98
2022-08-17T15:21:14.857Z,25.11
2022-08-17T15:23:41.425Z,23.80
2022-08-17T15:26:10.758Z,23.44
2022-08-17T15:28:37.791Z,23.67
2022-08-17T15:31:06.119Z,24.25
2022-08-17T15:33:32.686Z,24.40
2022-08-17T15:36:01.794Z,25.15
2022-08-17T15:38:28.873Z,26.07
2022-08-17T15:40:57.661Z,25.04
2022-08-17T15:43:32.599Z,26.27
2022-08-17T15:46:12.427Z,25.25
2022-08-17T15:48:41.899Z,25.24
2022-08-17T15:51:11.170Z,25.55
2022-08-17T15:53:39.135Z,26.68
2022-08-17T15:56:07.210Z,25.37
2022-08-17T15:58:34.955Z,25.36
2022-08-17T16:01:14.727Z,28.28
2022-08-17T16:04:04.577Z,26.14
2022-08-17T16:06:32.887Z,25.62
2022-08-17T16:09:00.513Z,25.76
2022-08-17T16:11:27.087Z,26.75
2022-08-17T16:13:54.969Z,25.37
2022-08-17T16:16:23.706Z,25.99
2022-08-17T16:18:53.547Z,26.23
2022-08-17T16:21:26.098Z,26.35
2022-08-17T16:24:12.695Z,27.48
2022-08-17T16:26:41.890Z,27.02
2022-08-17T16:29:08.743Z,25.97
2022-08-17T16:31:37.582Z,25.44
2022-08-17T16:34:17.899Z,27.32
2022-08-17T16:36:54.658Z,26.11
2022-08-17T16:39:24.377Z,27.87
2022-08-17T16:41:50.877Z,26.45
2022-08-17T16:44:21.044Z,26.16
2022-08-17T16:46:48.948Z,27.17
2022-08-17T16:49:31.581Z,26.72
2022-08-17T16:52:04.321Z,27.56
2022-08-17T16:54:30.980Z,27.45
2022-08-17T16:56:57.466Z,27.82
2022-08-17T16:59:31.195Z,28.34
2022-08-17T17:02:10.934Z,28.41
2022-08-17T17:04:50.462Z,28.37
2022-08-17T17:07:32.265Z,30.72
2022-08-17T17:10:15.903Z,29.53
2022-08-17T17:13:03.923Z,30.80
2022-08-17T17:15:42.685Z,27.75
2022-08-17T17:18:13.409Z,27.32
2022-08-17T17:21:01.184Z,26.78
2022-08-17T17:23:45.339Z,28.66
2022-08-17T17:26:28.022Z,28.79
2022-08-17T17:29:09.415Z,29.62
2022-08-17T17:31:45.175Z,28.56
2022-08-17T17:34:15.880Z,28.52
2022-08-17T17:36:48.539Z,29.59
2022-08-17T17:39:31.854Z,30.21
2022-08-17T17:42:02.681Z,28.80
2022-08-17T17:44:49.747Z,30.07
2022-08-17T17:47:16.432Z,29.24
2022-08-17T17:49:45.992Z,30.31
2022-08-17T17:52:41.026Z,30.51
2022-08-17T17:55:23.163Z,29.30
2022-08-17T17:57:49.883Z,28.67
2022-08-17T18:00:22.006Z,29.75
2022-08-17T18:03:39.654Z,29.73
2022-08-17T18:06:18.726Z,30.16
2022-08-17T18:09:15.626Z,30.96
2022-08-17T18:12:06.514Z,31.06
2022-08-17T18:14:54.242Z,32.81
2022-08-17T18:17:20.797Z,31.91
2022-08-17T18:19:48.298Z,31.37
2022-08-17T18:22:22.204Z,32.29
2022-08-17T18:24:56.055Z,33.01
2022-08-17T18:27:25.442Z,32.31
2022-08-17T18:29:54.869Z,33.02
2022-08-17T18:32:26.872Z,34.08
2022-08-17T18:35:15.248Z,33.49
2022-08-17T18:37:46.863Z,33.14
2022-08-17T18:40:16.430Z,33.67
2022-08-17T18:42:58.967Z,33.57
2022-08-17T18:45:40.784Z,33.91
2022-08-17T18:48:33.442Z,34.38
2022-08-17T18:51:20.333Z,33.71
2022-08-17T18:54:14.505Z,34.96
2022-08-17T18:56:51.272Z,34.45
2022-08-17T18:59:29.891Z,34.72
2022-08-17T19:01:59.182Z,35.58
2022-08-17T19:04:34.603Z,35.35
2022-08-17T19:07:25.666Z,36.02
2022-08-17T19:10:08.877Z,35.36
2022-08-17T19:13:12.580Z,34.86
2022-08-17T19:16:11.716Z,35.80
2022-08-17T19:18:38.990Z,35.10
2022-08-17T19:21:30.662Z,35.76
2022-08-17T19:24:07.062Z,36.00
2022-08-17T19:26:53.715Z,35.81
2022-08-17T19:29:42.214Z,36.01
2022-08-17T19:32:10.582Z,36.01
2022-08-17T19:34:39.349Z,36.17
2022-08-17T19:37:17.594Z,36.59
2022-08-17T19:39:50.104Z,36.58
2022-08-17T19:42:41.226Z,36.53
2022-08-17T19:45:24.281Z,36.72
2022-08-17T19:48:15.410Z,37.39
2022-08-17T19:51:20.475Z,37.01
2022-08-17T19:54:06.231Z,37.92
2022-08-17T19:56:57.276Z,36.73
2022-08-17T19:59:48.871Z,36.87
2022-08-17T20:02:20.632Z,38.05
2022-08-17T20:04:50.521Z,37.57
2022-08-17T20:07:40.487Z,37.41
2022-08-17T20:10:12.991Z,37.48
2022-08-17T20:12:44.560Z,37.06
2022-08-17T20:15:27.196Z,37.55
2022-08-17T20:17:58.700Z,37.65
2022-08-17T20:20:47.066Z,37.65
2022-08-17T20:23:49.026Z,38.09
2022-08-17T20:26:21.955Z,37.82
2022-08-17T20:29:13.923Z,38.48
2022-08-17T20:32:13.464Z,38.43
2022-08-17T20:34:40.017Z,39.61
2022-08-17T20:37:15.645Z,40.03
2022-08-17T20:40:05.753Z,38.80
2022-08-17T20:42:33.928Z,38.17
2022-08-17T20:45:21.743Z,38.93
2022-08-17T20:48:18.477Z,38.57
2022-08-17T20:50:43.999Z,38.25
2022-08-17T20:53:15.037Z,38.52
2022-08-17T20:55:51.659Z,39.11
2022-08-17T20:58:42.120Z,40.50
2022-08-17T21:01:16.120Z,39.72
2022-08-17T21:03:50.613Z,40.80
2022-08-17T21:06:21.042Z,38.83
2022-08-17T21:08:53.883Z,39.00
2022-08-17T21:12:03.351Z,39.82
2022-08-17T21:14:26.747Z,39.87
2022-08-17T21:17:18.555Z,38.53
2022-08-17T21:20:22.925Z,38.85
2022-08-17T21:22:55.552Z,38.70
2022-08-17T21:25:40.359Z,39.27
2022-08-17T21:28:10.715Z,39.35
2022-08-17T21:30:39.131Z,39.77
2022-08-17T21:33:20.160Z,40.48
2022-08-17T21:35:59.090Z,40.13
2022-08-17T21:38:41.728Z,39.46
2022-08-17T21:41:20.602Z,40.65
2022-08-17T21:43:50.310Z,40.33
2022-08-17T21:46:29.019Z,41.23
2022-08-17T21:49:02.677Z,40.01
2022-08-17T21:51:40.972Z,40.12
2022-08-17T21:54:25.264Z,40.39
2022-08-17T21:56:52.215Z,41.52
2022-08-17T21:59:19.457Z,41.65
2022-08-17T22:01:57.647Z,42.57
2022-08-17T22:04:42.143Z,42.22
2022-08-17T22:07:11.850Z,42.11
2022-08-17T22:09:47.828Z,42.44
2022-08-17T22:12:20.103Z,42.06
2022-08-17T22:14:54.184Z,42.35
2022-08-17T22:17:27.146Z,42.40
2022-08-17T22:20:14.450Z,42.18
2022-08-17T22:23:08.720Z,42.01
2022-08-17T22:25:40.727Z,42.34
2022-08-17T22:28:09.779Z,43.94
2022-08-17T22:30:58.712Z,45.28
2022-08-17T22:33:37.024Z,46.91
2022-08-17T22:36:29.867Z,47.49
2022-08-17T22:38:58.683Z,47.97
2022-08-17T22:41:31.998Z,48.57
2022-08-17T22:44:07.291Z,49.38
2022-08-17T22:46:39.531Z,50.86
2022-08-17T22:49:06.538Z,51.76
2022-08-17T22:51:33.270Z,54.01
2022-08-17T22:54:35.293Z,54.60
2022-08-17T22:57:22.719Z,56.19
2022-08-17T22:59:52.695Z,57.44
2022-08-17T23:02:23.779Z,59.18
2022-08-17T23:05:10.128Z,62.02
2022-08-17T23:07:36.879Z,62.87
2022-08-17T23:10:06.474Z,63.73
2022-08-17T23:12:38.912Z,66.88
2022-08-17T23:15:12.657Z,69.17
2022-08-17T23:17:39.240Z,70.83
2022-08-17T23:20:09.129Z,71.54
2022-08-17T23:22:38.082Z,72.71
2022-08-17T23:25:27.256Z,74.43
2022-08-17T23:27:54.457Z,76.18
2022-08-17T23:30:21.404Z,77.49
2022-08-17T23:32:53.890Z,79.18
2022-08-17T23:35:39.405Z,79.45
2022-08-17T23:38:07.603Z,79.89
2022-08-17T23:40:34.524Z,81.58
2022-08-17T23:43:01.029Z,82.14
2022-08-17T23:45:32.517Z,82.99
2022-08-17T23:47:58.974Z,83.13
2022-08-17T23:50:25.473Z,83.80
2022-08-17T23:52:57.705Z,84.60
2022-08-17T23:55:24.211Z,84.16
2022-08-17T23:57:50.865Z,83.42
